Terminal Aerodrome Forecast
Issued by NWS

Home | Current Version | Previous Version | Text Only | Print | Product List | Glossary On
Versions: 1 2 3 4 5 6 7 8 9 10 11 12 13 14 15 16 17
000
FTPA31 PHFO 190534
TAFMDY
TAF
PMDY 190534Z 1906/2006 04011KT P6SM FEW020 SCT025
      TEMPO 1906/1910 SCT020 BKN025=

USA.gov is the U.S. government's official web portal to all federal, state and local government web resources and services.